createdAt,value
2018-07-06T00:00:02.881Z,16.66
2018-07-06T00:02:42.516Z,16.66
2018-07-06T00:05:22.253Z,16.62
2018-07-06T00:08:01.955Z,16.58
2018-07-06T00:10:41.862Z,16.56
2018-07-06T00:13:21.713Z,16.50
2018-07-06T00:16:01.273Z,16.45
2018-07-06T00:18:40.886Z,16.42
2018-07-06T00:21:20.556Z,16.41
2018-07-06T00:24:00.330Z,16.36
2018-07-06T00:26:39.949Z,16.38
2018-07-06T00:29:19.668Z,16.36
2018-07-06T00:31:59.200Z,16.34
2018-07-06T00:34:39.073Z,16.34
2018-07-06T00:37:18.738Z,16.31
2018-07-06T00:39:58.344Z,16.28
2018-07-06T00:42:37.958Z,16.26
2018-07-06T00:45:17.968Z,16.21
2018-07-06T00:47:57.758Z,16.18
2018-07-06T00:50:37.324Z,16.18
2018-07-06T00:53:17.050Z,16.16
2018-07-06T00:55:56.581Z,16.12
2018-07-06T00:58:36.704Z,16.10
2018-07-06T01:01:16.426Z,16.08
2018-07-06T01:03:56.122Z,16.08
2018-07-06T01:06:35.919Z,16.08
2018-07-06T01:09:15.541Z,16.10
2018-07-06T01:11:55.385Z,16.11
2018-07-06T01:14:36.135Z,16.09
2018-07-06T01:17:17.198Z,16.02
2018-07-06T01:19:57.817Z,15.90
2018-07-06T01:22:37.553Z,15.82
2018-07-06T01:25:17.104Z,15.80
2018-07-06T01:27:56.965Z,15.78
2018-07-06T01:30:36.669Z,15.78
2018-07-06T01:33:16.309Z,15.77
2018-07-06T01:35:55.962Z,15.79
2018-07-06T01:38:35.537Z,15.04
2018-07-06T01:41:15.319Z,15.73
2018-07-06T01:43:55.033Z,15.19
2018-07-06T01:46:34.591Z,15.80
2018-07-06T01:49:14.409Z,15.88
2018-07-06T01:51:53.883Z,15.94
2018-07-06T01:54:33.800Z,15.96
2018-07-06T01:57:13.356Z,15.95
2018-07-06T01:59:53.573Z,15.94
2018-07-06T02:02:33.134Z,15.94
2018-07-06T02:05:13.058Z,15.96
2018-07-06T02:07:52.822Z,15.99
2018-07-06T02:10:32.462Z,16.01
2018-07-06T02:13:12.245Z,16.02
2018-07-06T02:15:52.617Z,16.04
2018-07-06T02:18:32.286Z,16.02
2018-07-06T02:21:11.993Z,15.99
2018-07-06T02:23:51.569Z,15.97
2018-07-06T02:26:31.633Z,15.95
2018-07-06T02:29:11.165Z,15.96
2018-07-06T02:31:50.934Z,16.01
2018-07-06T02:34:30.649Z,16.04
2018-07-06T02:37:10.702Z,16.12
2018-07-06T02:39:50.242Z,16.20
2018-07-06T02:42:30.161Z,16.28
2018-07-06T02:45:09.870Z,16.37
2018-07-06T02:47:49.890Z,16.42
2018-07-06T02:50:29.520Z,16.41
2018-07-06T02:53:09.697Z,16.41
2018-07-06T02:55:49.381Z,16.43
2018-07-06T02:58:28.966Z,16.46
2018-07-06T03:01:08.642Z,16.53
2018-07-06T03:03:48.408Z,16.59
2018-07-06T03:06:28.249Z,16.64
2018-07-06T03:09:07.809Z,16.67
2018-07-06T03:11:47.336Z,16.72
2018-07-06T03:14:27.115Z,16.73
2018-07-06T03:17:06.989Z,16.80
2018-07-06T03:19:46.557Z,16.86
2018-07-06T03:22:26.594Z,16.93
2018-07-06T03:25:06.226Z,16.97
2018-07-06T03:27:45.889Z,16.90
2018-07-06T03:30:25.490Z,16.79
2018-07-06T03:33:05.027Z,16.71
2018-07-06T03:35:44.842Z,16.69
2018-07-06T03:38:24.558Z,16.68
2018-07-06T03:41:03.997Z,16.71
2018-07-06T03:43:43.600Z,16.75
2018-07-06T03:46:23.113Z,16.69
2018-07-06T03:49:02.789Z,16.62
2018-07-06T03:51:42.537Z,16.56
2018-07-06T03:54:22.073Z,16.62
2018-07-06T03:57:01.677Z,16.70
2018-07-06T03:59:41.181Z,16.84
2018-07-06T04:02:20.991Z,17.03
2018-07-06T04:05:00.597Z,17.22
2018-07-06T04:07:40.277Z,17.43
2018-07-06T04:10:20.061Z,17.62
2018-07-06T04:12:59.695Z,17.71
2018-07-06T04:15:40.516Z,17.82
2018-07-06T04:18:21.291Z,17.92
2018-07-06T04:21:00.885Z,18.03
2018-07-06T04:23:40.653Z,17.26
2018-07-06T04:26:20.900Z,18.07
2018-07-06T04:29:00.614Z,18.03
2018-07-06T04:31:40.204Z,17.98
2018-07-06T04:34:19.889Z,17.95
2018-07-06T04:36:59.523Z,17.92
2018-07-06T04:39:39.322Z,17.92
2018-07-06T04:42:19.161Z,17.91
2018-07-06T04:44:59.056Z,17.93
2018-07-06T04:47:38.627Z,17.92
2018-07-06T04:50:18.341Z,17.93
2018-07-06T04:52:57.983Z,17.94
2018-07-06T04:55:37.677Z,17.96
2018-07-06T04:58:17.361Z,17.97
2018-07-06T05:00:56.983Z,18.01
2018-07-06T05:03:36.674Z,18.04
2018-07-06T05:06:16.669Z,18.11
2018-07-06T05:08:56.381Z,18.21
2018-07-06T05:11:36.046Z,18.25
2018-07-06T05:14:15.693Z,18.31
2018-07-06T05:16:56.035Z,18.37
2018-07-06T05:19:36.581Z,18.43
2018-07-06T05:22:16.192Z,18.50
2018-07-06T05:31:51.128Z,18.66
2018-07-06T05:34:30.815Z,18.72
2018-07-06T05:37:10.905Z,18.81
2018-07-06T05:39:50.525Z,18.89
2018-07-06T05:42:30.813Z,18.99
2018-07-06T05:45:10.778Z,19.11
2018-07-06T05:47:50.821Z,19.27
2018-07-06T05:50:30.522Z,19.37
2018-07-06T05:53:10.317Z,19.46
2018-07-06T05:55:49.954Z,19.55
2018-07-06T05:58:29.786Z,19.62
2018-07-06T06:01:09.329Z,19.72
2018-07-06T06:03:49.674Z,19.78
2018-07-06T06:06:29.246Z,19.89
2018-07-06T06:08:56.885Z,20.00
2018-07-06T06:11:25.577Z,20.08
2018-07-06T06:13:54.061Z,20.14
2018-07-06T06:16:22.656Z,20.23
2018-07-06T06:18:51.565Z,20.37
2018-07-06T06:21:20.141Z,20.48
2018-07-06T06:23:48.937Z,20.56
2018-07-06T06:26:25.668Z,20.65
2018-07-06T06:28:54.881Z,20.71
2018-07-06T06:31:23.871Z,20.80
2018-07-06T06:33:53.034Z,20.87
2018-07-06T06:36:21.945Z,20.97
2018-07-06T06:38:50.598Z,21.11
2018-07-06T06:41:19.648Z,21.21
2018-07-06T06:43:48.291Z,21.28
2018-07-06T06:46:17.050Z,21.36
2018-07-06T06:48:45.532Z,21.46
2018-07-06T06:51:14.076Z,21.47
2018-07-06T06:53:42.942Z,21.54
2018-07-06T06:56:11.434Z,21.63
2018-07-06T06:58:40.224Z,21.71
2018-07-06T07:01:08.915Z,21.82
2018-07-06T07:03:38.321Z,21.88
2018-07-06T07:06:07.001Z,21.98
2018-07-06T07:08:36.279Z,22.11
2018-07-06T07:11:04.749Z,22.23
2018-07-06T07:13:33.841Z,22.40
2018-07-06T07:16:02.569Z,22.48
2018-07-06T07:18:31.157Z,22.60
2018-07-06T07:20:59.955Z,22.73
2018-07-06T07:23:29.058Z,22.88
2018-07-06T07:25:57.583Z,23.11
2018-07-06T07:28:26.389Z,23.35
2018-07-06T07:30:55.145Z,23.58
2018-07-06T07:33:23.651Z,23.82
2018-07-06T07:35:52.269Z,24.08
2018-07-06T07:38:20.777Z,24.37
2018-07-06T07:40:49.249Z,24.68
2018-07-06T07:43:17.945Z,25.09
2018-07-06T07:45:46.537Z,25.74
2018-07-06T07:48:14.981Z,26.41
2018-07-06T07:52:58.596Z,27.26
2018-07-06T07:55:27.362Z,28.18
2018-07-06T07:57:56.082Z,28.61
2018-07-06T08:00:25.361Z,28.72
2018-07-06T08:02:53.819Z,28.68
2018-07-06T08:05:22.365Z,28.88
2018-07-06T08:07:51.651Z,29.05
2018-07-06T08:10:20.171Z,28.75
2018-07-06T08:12:48.672Z,28.68
2018-07-06T08:15:17.609Z,28.96
2018-07-06T08:17:46.066Z,29.49
2018-07-06T08:20:14.536Z,29.91
2018-07-06T08:22:43.913Z,30.24
2018-07-06T08:25:12.506Z,30.62
2018-07-06T08:27:40.973Z,30.95
2018-07-06T08:30:09.703Z,31.35
2018-07-06T08:32:38.165Z,31.59
2018-07-06T08:35:17.911Z,31.55
2018-07-06T08:37:56.826Z,31.83
2018-07-06T08:40:26.937Z,32.22
2018-07-06T08:43:01.334Z,32.39
2018-07-06T08:45:30.983Z,32.45
2018-07-06T08:47:59.477Z,32.47
2018-07-06T08:50:28.133Z,32.38
2018-07-06T08:52:57.214Z,32.03
2018-07-06T08:55:26.173Z,31.70
2018-07-06T08:57:55.882Z,31.56
2018-07-06T09:00:24.830Z,31.28
2018-07-06T09:02:53.462Z,31.33
2018-07-06T09:05:22.099Z,31.21
2018-07-06T09:07:50.719Z,30.48
2018-07-06T09:10:19.445Z,29.61
2018-07-06T09:12:47.920Z,28.80
2018-07-06T09:15:16.849Z,28.22
2018-07-06T09:17:45.275Z,28.18
2018-07-06T09:20:13.906Z,28.84
2018-07-06T09:22:42.614Z,29.67
2018-07-06T09:25:11.454Z,30.43
2018-07-06T09:27:40.018Z,30.93
2018-07-06T09:30:08.695Z,31.20
2018-07-06T09:32:38.229Z,31.21
2018-07-06T09:35:06.669Z,31.30
2018-07-06T09:37:35.440Z,31.12
2018-07-06T09:40:03.953Z,31.49
2018-07-06T09:42:32.422Z,31.79
2018-07-06T09:45:01.046Z,32.10
2018-07-06T09:47:29.507Z,32.35
2018-07-06T09:49:57.998Z,32.54
2018-07-06T09:52:27.135Z,32.73
2018-07-06T09:54:55.637Z,32.82
2018-07-06T09:57:24.098Z,33.02
2018-07-06T09:59:53.081Z,33.10
2018-07-06T10:02:22.171Z,33.29
2018-07-06T10:04:50.597Z,33.54
2018-07-06T10:07:19.170Z,33.73
2018-07-06T10:09:47.682Z,33.97
2018-07-06T10:12:16.262Z,33.96
2018-07-06T10:14:44.945Z,34.00
2018-07-06T10:17:13.389Z,34.14
2018-07-06T10:19:42.169Z,34.33
2018-07-06T10:22:11.352Z,34.56
2018-07-06T10:24:39.829Z,34.40
2018-07-06T10:27:08.566Z,34.45
2018-07-06T10:30:10.231Z,34.48
2018-07-06T10:32:38.807Z,33.81
2018-07-06T10:35:07.653Z,34.32
2018-07-06T10:37:36.560Z,34.31
2018-07-06T10:40:05.091Z,34.29
2018-07-06T10:42:33.492Z,34.41
2018-07-06T10:45:02.310Z,34.61
2018-07-06T10:47:30.778Z,34.80
2018-07-06T10:49:59.401Z,34.69
2018-07-06T10:52:27.908Z,34.45
2018-07-06T10:54:56.459Z,34.51
2018-07-06T10:57:24.980Z,34.60
2018-07-06T10:59:53.497Z,34.53
2018-07-06T11:02:21.957Z,34.34
2018-07-06T11:04:50.713Z,34.45
2018-07-06T11:07:19.213Z,34.60
2018-07-06T11:09:47.693Z,34.66
2018-07-06T11:12:16.775Z,34.62
2018-07-06T11:14:45.323Z,34.61
2018-07-06T11:17:13.761Z,34.45
2018-07-06T11:19:42.489Z,34.44
2018-07-06T11:22:10.985Z,34.41
2018-07-06T11:24:39.452Z,34.45
2018-07-06T11:27:08.244Z,34.43
2018-07-06T11:29:37.656Z,34.18
2018-07-06T11:32:06.709Z,34.02
2018-07-06T11:34:35.486Z,33.85
2018-07-06T11:37:04.315Z,33.76
2018-07-06T11:39:32.814Z,33.62
2018-07-06T11:42:01.633Z,33.59
2018-07-06T11:44:30.203Z,33.59
2018-07-06T11:47:00.682Z,33.58
2018-07-06T11:49:29.217Z,33.41
2018-07-06T11:51:58.220Z,33.17
2018-07-06T11:54:26.683Z,32.77
2018-07-06T11:56:55.443Z,32.75
2018-07-06T11:59:24.095Z,32.78
2018-07-06T12:01:52.546Z,32.96
2018-07-06T12:04:21.399Z,32.90
2018-07-06T12:06:50.165Z,32.74
2018-07-06T12:09:18.629Z,32.64
2018-07-06T12:11:47.329Z,32.47
2018-07-06T12:14:16.323Z,32.28
2018-07-06T12:16:44.753Z,32.41
2018-07-06T12:19:13.281Z,32.47
2018-07-06T12:21:41.805Z,32.62
2018-07-06T12:24:10.257Z,32.68
2018-07-06T12:26:38.717Z,32.81
2018-07-06T12:29:07.281Z,33.02
2018-07-06T12:31:36.306Z,33.38
2018-07-06T12:34:04.853Z,33.61
2018-07-06T12:36:33.311Z,33.76
2018-07-06T12:39:01.849Z,33.92
2018-07-06T12:41:30.305Z,34.08
2018-07-06T12:43:58.793Z,34.16
2018-07-06T12:46:27.690Z,34.29
2018-07-06T12:48:56.153Z,34.44
2018-07-06T12:51:24.937Z,34.60
2018-07-06T12:53:53.493Z,34.60
2018-07-06T12:56:21.990Z,34.68
2018-07-06T12:58:50.805Z,34.93
2018-07-06T13:01:19.251Z,35.07
2018-07-06T13:03:47.704Z,35.23
2018-07-06T13:06:16.213Z,35.25
2018-07-06T13:08:44.944Z,35.17
2018-07-06T13:11:13.942Z,35.21
2018-07-06T13:13:42.425Z,35.38
2018-07-06T13:16:10.924Z,35.39
2018-07-06T13:18:39.405Z,35.25
2018-07-06T13:21:08.017Z,35.16
2018-07-06T13:23:36.493Z,35.15
2018-07-06T13:26:05.409Z,35.51
2018-07-06T13:28:33.988Z,35.65
2018-07-06T13:31:02.617Z,35.57
2018-07-06T13:33:31.496Z,35.49
2018-07-06T13:36:00.102Z,35.33
2018-07-06T13:38:28.597Z,35.46
2018-07-06T13:40:57.181Z,35.30
2018-07-06T13:43:25.888Z,35.71
2018-07-06T13:45:54.626Z,36.08
2018-07-06T13:48:23.285Z,36.37
2018-07-06T13:50:51.859Z,36.55
2018-07-06T13:53:20.328Z,36.70
2018-07-06T13:55:49.036Z,36.18
2018-07-06T13:58:17.543Z,36.02
2018-07-06T14:00:45.986Z,36.14
2018-07-06T14:03:14.957Z,36.38
2018-07-06T14:05:43.573Z,36.73
2018-07-06T14:08:12.014Z,36.71
2018-07-06T14:10:41.005Z,36.68
2018-07-06T14:13:09.895Z,36.58
2018-07-06T14:15:38.437Z,36.70
2018-07-06T14:18:06.906Z,36.78
2018-07-06T14:20:35.843Z,36.75
2018-07-06T14:23:04.307Z,36.50
2018-07-06T14:25:32.905Z,36.52
2018-07-06T14:28:01.564Z,36.58
2018-07-06T14:30:30.196Z,35.94
2018-07-06T14:32:58.646Z,35.46
2018-07-06T14:35:27.871Z,35.57
2018-07-06T14:37:56.321Z,35.81
2018-07-06T14:40:24.861Z,36.18
2018-07-06T14:42:53.633Z,36.43
2018-07-06T14:45:22.482Z,36.33
2018-07-06T14:47:50.922Z,36.33
2018-07-06T14:50:19.749Z,36.59
2018-07-06T14:52:48.578Z,36.83
2018-07-06T14:55:17.402Z,36.89
2018-07-06T14:57:46.077Z,37.16
2018-07-06T15:00:14.862Z,37.20
2018-07-06T15:02:43.321Z,37.35
2018-07-06T15:05:12.229Z,37.48
2018-07-06T15:07:40.960Z,37.56
2018-07-06T15:10:09.444Z,37.60
2018-07-06T15:12:39.163Z,37.82
2018-07-06T15:15:07.698Z,37.98
2018-07-06T15:17:36.390Z,38.35
2018-07-06T15:20:05.118Z,38.55
2018-07-06T15:22:33.965Z,38.46
2018-07-06T15:25:02.489Z,38.36
2018-07-06T15:27:31.062Z,38.23
2018-07-06T15:29:59.793Z,37.96
2018-07-06T15:32:28.314Z,37.97
2018-07-06T15:34:57.025Z,37.49
2018-07-06T15:37:26.218Z,37.31
2018-07-06T15:39:54.814Z,37.39
2018-07-06T15:42:23.730Z,37.55
2018-07-06T15:44:52.173Z,37.53
2018-07-06T15:47:20.674Z,37.61
2018-07-06T15:49:49.334Z,37.56
2018-07-06T15:52:17.898Z,37.23
2018-07-06T15:54:46.437Z,37.35
2018-07-06T15:57:15.153Z,37.35
2018-07-06T15:59:43.590Z,37.23
2018-07-06T16:02:12.035Z,37.13
2018-07-06T16:04:40.877Z,37.10
2018-07-06T16:07:09.355Z,36.95
2018-07-06T16:09:37.877Z,36.66
2018-07-06T16:12:06.689Z,36.33
2018-07-06T16:14:35.405Z,36.02
2018-07-06T16:17:03.858Z,35.96
2018-07-06T16:19:32.465Z,35.72
2018-07-06T16:22:01.189Z,35.63
2018-07-06T16:24:29.649Z,35.77
2018-07-06T16:26:58.442Z,35.48
2018-07-06T16:29:26.983Z,35.25
2018-07-06T16:31:55.471Z,35.09
2018-07-06T16:34:24.025Z,34.66
2018-07-06T16:36:52.594Z,34.81
2018-07-06T16:39:21.283Z,34.97
2018-07-06T16:41:49.910Z,34.74
2018-07-06T16:44:18.360Z,34.43
2018-07-06T16:46:46.827Z,34.32
2018-07-06T16:49:16.259Z,34.01
2018-07-06T16:51:45.062Z,33.93
2018-07-06T16:54:13.509Z,33.68
2018-07-06T16:56:42.069Z,33.48
2018-07-06T16:59:10.856Z,33.22
2018-07-06T17:01:39.514Z,32.74
2018-07-06T17:04:08.418Z,32.17
2018-07-06T17:06:37.714Z,31.54
2018-07-06T17:09:07.033Z,30.96
2018-07-06T17:11:35.577Z,30.33
2018-07-06T17:14:04.050Z,29.94
2018-07-06T17:16:32.948Z,29.40
2018-07-06T17:19:01.734Z,28.94
2018-07-06T17:21:30.209Z,28.70
2018-07-06T17:23:58.897Z,28.46
2018-07-06T17:26:27.933Z,28.18
2018-07-06T17:28:56.588Z,27.86
2018-07-06T17:31:25.341Z,27.66
2018-07-06T17:33:54.145Z,27.55
2018-07-06T17:36:22.594Z,27.35
2018-07-06T17:38:51.113Z,27.16
2018-07-06T17:41:20.145Z,27.01
2018-07-06T17:43:48.800Z,26.91
2018-07-06T17:46:17.705Z,26.79
2018-07-06T17:48:46.567Z,26.67
2018-07-06T17:51:15.081Z,26.53
2018-07-06T17:53:43.526Z,26.46
2018-07-06T17:56:12.760Z,26.35
2018-07-06T17:58:41.206Z,26.23
2018-07-06T18:01:09.732Z,26.12
2018-07-06T18:03:39.015Z,26.01
2018-07-06T18:06:07.994Z,25.94
2018-07-06T18:08:36.945Z,25.86
2018-07-06T18:11:05.973Z,25.77
2018-07-06T18:13:34.469Z,25.66
2018-07-06T18:16:03.028Z,25.58
2018-07-06T18:18:31.725Z,25.50
2018-07-06T18:21:00.388Z,25.45
2018-07-06T18:23:29.345Z,25.37
2018-07-06T18:25:58.031Z,25.32
2018-07-06T18:28:26.490Z,25.22
2018-07-06T18:30:55.003Z,25.21
2018-07-06T18:33:23.561Z,25.15
2018-07-06T18:35:52.050Z,25.12
2018-07-06T18:38:20.550Z,25.10
2018-07-06T18:40:49.105Z,25.05
2018-07-06T18:43:17.883Z,25.03
2018-07-06T18:45:46.476Z,24.95
2018-07-06T18:48:15.297Z,24.90
2018-07-06T18:50:43.729Z,24.86
2018-07-06T18:53:12.499Z,24.82
2018-07-06T18:55:41.090Z,24.76
2018-07-06T18:58:09.589Z,24.75
2018-07-06T19:00:39.422Z,24.70
2018-07-06T19:03:08.457Z,24.68
2018-07-06T19:05:38.172Z,24.63
2018-07-06T19:08:07.587Z,24.56
2018-07-06T19:10:36.682Z,24.49
2018-07-06T19:13:05.166Z,24.45
2018-07-06T19:15:33.766Z,24.39
2018-07-06T19:18:02.627Z,24.37
2018-07-06T19:20:31.146Z,24.33
2018-07-06T19:22:59.732Z,24.35
2018-07-06T19:25:28.269Z,24.38
2018-07-06T19:27:56.698Z,23.72
2018-07-06T19:30:25.328Z,24.42
2018-07-06T19:32:53.955Z,24.37
2018-07-06T19:35:22.413Z,24.27
2018-07-06T19:37:51.893Z,24.21
2018-07-06T19:40:20.464Z,24.12
2018-07-06T19:42:48.923Z,24.11
2018-07-06T19:45:17.846Z,24.08
2018-07-06T19:47:46.341Z,24.04
2018-07-06T19:50:14.805Z,23.94
2018-07-06T19:52:43.693Z,23.88
2018-07-06T19:55:12.324Z,23.89
2018-07-06T19:57:40.871Z,23.86
2018-07-06T20:00:09.649Z,23.87
2018-07-06T20:02:38.265Z,23.82
2018-07-06T20:05:06.953Z,23.82
2018-07-06T20:07:35.588Z,23.83
2018-07-06T20:10:04.233Z,23.83
2018-07-06T20:12:32.683Z,23.82
2018-07-06T20:15:01.128Z,23.76
2018-07-06T20:17:30.429Z,23.74
2018-07-06T20:19:58.933Z,23.76
2018-07-06T20:22:27.835Z,23.74
2018-07-06T20:24:56.971Z,23.73
2018-07-06T20:27:25.780Z,23.73
2018-07-06T20:29:54.429Z,23.71
2018-07-06T20:32:22.997Z,23.70
2018-07-06T20:34:51.447Z,23.68
2018-07-06T20:37:20.071Z,23.69
2018-07-06T20:39:48.984Z,23.66
2018-07-06T20:42:17.446Z,23.63
2018-07-06T20:44:46.079Z,23.61
2018-07-06T20:47:15.269Z,23.06
2018-07-06T20:49:43.761Z,23.56
2018-07-06T20:52:12.261Z,23.53
2018-07-06T20:54:40.819Z,23.50
2018-07-06T20:57:09.283Z,23.47
2018-07-06T20:59:37.917Z,23.45
2018-07-06T21:02:07.790Z,23.44
2018-07-06T21:04:36.325Z,23.42
2018-07-06T21:07:05.493Z,23.40
2018-07-06T21:09:33.959Z,23.37
2018-07-06T21:12:02.530Z,23.35
2018-07-06T21:14:31.242Z,23.30
2018-07-06T21:17:00.218Z,23.27
2018-07-06T21:19:28.682Z,23.25
2018-07-06T21:21:57.214Z,23.21
2018-07-06T21:24:25.971Z,23.14
2018-07-06T21:26:54.397Z,23.09
2018-07-06T21:29:23.037Z,23.02
2018-07-06T21:31:51.633Z,22.93
2018-07-06T21:34:20.093Z,22.72
2018-07-06T21:36:48.790Z,22.81
2018-07-06T21:39:17.678Z,22.78
2018-07-06T21:41:46.129Z,22.71
2018-07-06T21:46:42.240Z,22.58
2018-07-06T21:49:12.366Z,22.52
2018-07-06T21:51:40.826Z,22.43
2018-07-06T21:54:09.603Z,22.39
2018-07-06T21:56:39.249Z,22.27
2018-07-06T21:59:07.803Z,22.20
2018-07-06T22:01:37.077Z,22.14
2018-07-06T22:04:05.762Z,22.08
2018-07-06T22:06:34.208Z,22.02
2018-07-06T22:09:02.842Z,21.95
2018-07-06T22:11:31.652Z,21.87
2018-07-06T22:14:00.157Z,21.77
2018-07-06T22:16:29.215Z,21.66
2018-07-06T22:18:57.995Z,21.55
2018-07-06T22:21:26.458Z,21.44
2018-07-06T22:23:55.655Z,21.37
2018-07-06T22:26:24.285Z,21.30
2018-07-06T22:28:52.826Z,21.27
2018-07-06T22:31:21.295Z,21.23
2018-07-06T22:33:49.747Z,21.17
2018-07-06T22:36:18.562Z,21.13
2018-07-06T22:38:47.053Z,21.07
2018-07-06T22:41:15.873Z,21.02
2018-07-06T22:43:44.375Z,20.94
2018-07-06T22:46:12.833Z,20.83
2018-07-06T22:48:41.609Z,20.77
2018-07-06T22:51:10.781Z,20.74
2018-07-06T22:53:39.777Z,20.73
2018-07-06T22:56:08.441Z,20.70
2018-07-06T22:58:36.959Z,20.65
2018-07-06T23:01:05.531Z,20.59
2018-07-06T23:03:34.007Z,20.54
2018-07-06T23:06:02.706Z,20.52
2018-07-06T23:08:31.282Z,20.47
2018-07-06T23:11:00.380Z,20.43
2018-07-06T23:13:28.919Z,20.39
2018-07-06T23:15:57.473Z,20.37
2018-07-06T23:18:25.937Z,20.32
2018-07-06T23:20:54.442Z,20.30
2018-07-06T23:23:23.220Z,20.30
2018-07-06T23:25:51.880Z,20.26
2018-07-06T23:28:20.332Z,20.24
2018-07-06T23:30:48.913Z,20.23
2018-07-06T23:33:17.655Z,20.18
2018-07-06T23:35:46.131Z,20.06
2018-07-06T23:38:14.914Z,20.01
2018-07-06T23:40:43.698Z,19.82
2018-07-06T23:43:14.984Z,19.91
2018-07-06T23:45:43.726Z,19.84
2018-07-06T23:48:12.823Z,19.79
2018-07-06T23:50:41.535Z,19.72
2018-07-06T23:53:10.925Z,19.63
2018-07-06T23:55:39.481Z,19.53
2018-07-06T23:58:08.286Z,19.36
